Weather observations for the past three days for
Angleton / Lake Jackson, Brazoria County Airport
Imperial (Metric)
Date Time (cdt) Wind (mph) Vis. (mi.) Weather Sky Cond. Temperature (ºF) Relative Humidity Wind Chill (°F) Heat Index (°F) Pressure Precipitation (in)
Air Dwpt 6 hour altimeter (in) sea level (mb) 1 hr 3 hr 6 hr
Max. Min.
04 17:53 Calm 0.00 Mostly Cloudy BKN032 75.9 64 67% 78 29.88 1011.8
04 16:53 Calm 0.00 Mostly Cloudy BKN046 79 64 60% 81 29.9 1012.3
04 15:53 Calm 0.00 Overcast OVC043 78.1 63 60% 80 29.92 1013.0
04 14:53 Calm 0.00 Overcast OVC045 79 63 58% 81 29.94 1013.6
04 13:53 Calm 0.00 Partly Cloudy SCT042 79 62.1 56% 80 29.95 1014.2
04 12:53 Calm 0.00 Partly Cloudy SCT040 80.1 62.1 54% 81 29.97 1014.7
04 10:53 S 16 10.00 Partly Cloudy SCT040 75 59 58% 77 30 1016.0
04 09:53 Calm 0.00 NULL NULL 75.9 61 60% 78 30.01 1016.1
03 19:53 SE 6 10.00 Fair CLR 68 50 53% 30.08 1018.4
03 18:53 SE 6 10.00 Fair CLR 73 48 78.1 73 41% 30.08 1018.4
03 17:53 SE 13 10.00 Fair CLR 75 48.9 40% 77 30.09 1019.0
03 16:53 S 10 10.00 Fair CLR 75.9 46.9 36% 78 30.11 1019.6
03 15:53 SE 8 10.00 Fair CLR 77 46 33% 78 30.13 1020.2
03 14:53 Vrbl 5 10.00 Fair CLR 77 46.9 35% 78 30.15 1020.9
03 13:53 SE 6 10.00 Fair CLR 77 46.9 35% 78 30.17 1021.5
03 12:53 E 9 10.00 Fair CLR 77 46.9 77 50 35% 78 30.2 1022.4
03 11:53 E 8 10.00 Fair CLR 77 48.9 37% 78 30.21 1022.9
03 10:53 NE 6 10.00 Fair CLR 75 44.1 33% 77 30.21 1023.0
03 09:53 Vrbl 6 10.00 Fair CLR 73.9 52 46% 30.2 1022.6
03 08:53 NE 3 10.00 Fair CLR 68 57.9 70% 30.19 1022.3
03 07:53 N 5 10.00 Fair CLR 55.9 54 93% 30.18 1022.0
03 06:53 Calm 9.00 Fair CLR 50 50 55 48.9 100% 30.17 1021.6
03 05:53 Calm 10.00 Fair CLR 51.1 51.1 100% 30.16 1021.1
03 04:53 Calm 10.00 Fair CLR 51.1 51.1 100% 30.15 1020.9
03 03:53 Calm 10.00 Fair CLR 52 51.1 97% 30.15 1021.0
03 02:53 S 5 9.00 Fair CLR 52 52 100% 30.15 1020.9
03 01:53 Calm 10.00 Fair CLR 53.1 53.1 100% 30.14 1020.7
03 00:53 Calm 10.00 Fair CLR 55 53.1 73.9 54 93% 30.15 1020.8
02 23:53 N 3 10.00 Fair CLR 55.9 53.1 90% 30.13 1020.4
02 22:53 N 3 10.00 Fair CLR 55.9 53.1 90% 30.13 1020.1
02 21:53 Calm 10.00 Fair CLR 57 53.1 87% 30.12 1019.7
02 20:53 Calm 10.00 Fair CLR 60.1 52 75% 30.1 1019.3
02 19:53 Calm 10.00 Fair CLR 66 52 61% 30.09 1018.8
02 18:53 NE 8 10.00 Fair CLR 73.9 46 75.9 72 37% 30.07 1018.3
02 17:53 NE 9 10.00 Fair CLR 75 44.1 33% 77 30.06 1017.8
02 16:53 N 13 10.00 Fair CLR 75.9 44.1 32% 77 30.06 1018.0
02 15:53 N 16 10.00 Fair CLR 75.9 46.9 36% 78 30.06 1017.9
02 14:53 N 13 G 25 10.00 Fair CLR 75 48 39% 77 30.08 1018.5
02 13:53 NE 17 G 29 10.00 Fair CLR 73.9 46.9 38% 30.1 1019.3
02 12:53 N 20 G 28 10.00 Fair CLR 72 48 72 53.1 43% 30.11 1019.6
02 11:53 N 18 G 26 10.00 Fair CLR 69.1 50 51% 30.13 1020.1
02 10:53 N 14 G 26 10.00 Fair CLR 66.9 54 63% 30.12 1019.9
02 09:53 NE 13 G 23 10.00 Fair CLR 63 54 73% 30.12 1019.7
02 08:53 N 13 10.00 Fair CLR 59 52 78% 30.1 1019.2
02 07:53 N 12 10.00 Fair CLR 55.9 52 87% 30.08 1018.6
02 06:53 N 9 10.00 Fair CLR 53.1 50 57 53.1 89% 30.05 1017.6
02 05:53 N 10 10.00 Fair CLR 54 51.1 90% 30.02 1016.4
02 04:53 N 10 10.00 A Few Clouds FEW014 55 52 90% 30.01 1016.2
02 03:53 N 12 10.00 Overcast OVC012 57 54 90% 29.98 1015.2
02 02:53 N 10 10.00 Overcast OVC011 57 54 90% 29.99 1015.4
02 01:53 NE 14 G 21 10.00 Overcast OVC011 57 54 90% 29.98 1015.2
02 00:53 NE 10 G 24 10.00 Overcast OVC012 57 54 62.1 57 90% 29.97 1014.9 0.39
01 23:53 N 18 G 28 10.00 Overcast OVC010 57.9 55.9 93% 29.96 1014.4
01 22:53 N 20 10.00 Overcast OVC009 57.9 55.9 93% 29.95 1014.3
01 21:53 NE 13 G 22 10.00 Overcast BKN010 OVC016 59 57.9 96% 29.91 1012.9 0.1 0.39
01 20:53 N 12 8.00 Overcast BKN008 OVC012 60.1 59 96% 29.92 1013.0 0.09
01 19:53 NE 15 G 28 5.00 Fog/Mist FEW009 OVC050 60.1 57.9 93% 29.85 1010.8 0.2
01 18:53 N 20 G 32 7.00 Overcast BKN007 OVC011 62.1 61 66.9 62.1 96% 29.79 1008.6 0.71
Date Time (cdt) Wind (mph) Vis. (mi.) Weather Sky Cond. Air Dwpt Max. Min. Relative Humidity Wind Chill (°F) Heat Index (°F) altimeter (in) sea level (mb) 1 hr 3 hr 6 hr
6 hour
Temperature (ºF) Pressure Precipitation (in)